sensor_id;sensor_type;location;lat;lon;timestamp;P1;durP1;ratioP1;P2;durP2;ratioP2
64022;SDS011;50264;52.088;5.296;2023-02-15T00:00:06;36.81;;;25.5;;
64022;SDS011;50264;52.088;5.296;2023-02-15T00:01:45;35.21;;;25.6;;
64022;SDS011;50264;52.088;5.296;2023-02-15T00:03:22;35.6;;;26.5;;
64022;SDS011;50264;52.088;5.296;2023-02-15T00:04:58;38.71;;;27.3;;
64022;SDS011;50264;52.088;5.296;2023-02-15T00:08:11;40.21;;;29.6;;
64022;SDS011;50264;52.088;5.296;2023-02-15T00:09:47;39.31;;;26.2;;
64022;SDS011;50264;52.088;5.296;2023-02-15T00:11:39;33.9;;;24.5;;
64022;SDS011;50264;52.088;5.296;2023-02-15T00:14:53;40.4;;;25.6;;
64022;SDS011;50264;52.088;5.296;2023-02-15T00:16:31;43.6;;;25.5;;
64022;SDS011;50264;52.088;5.296;2023-02-15T00:18:08;35.5;;;25.8;;
64022;SDS011;50264;52.088;5.296;2023-02-15T00:19:44;54.6;;;31.0;;
64022;SDS011;50264;52.088;5.296;2023-02-15T00:22:56;42.0;;;27.7;;
64022;SDS011;50264;52.088;5.296;2023-02-15T00:24:34;42.0;;;27.7;;
64022;SDS011;50264;52.088;5.296;2023-02-15T00:26:11;40.4;;;25.7;;
64022;SDS011;50264;52.088;5.296;2023-02-15T00:29:25;45.1;;;28.1;;
64022;SDS011;50264;52.088;5.296;2023-02-15T00:31:03;37.71;;;25.7;;
64022;SDS011;50264;52.088;5.296;2023-02-15T00:32:40;34.21;;;25.7;;
64022;SDS011;50264;52.088;5.296;2023-02-15T00:34:17;37.21;;;25.0;;
64022;SDS011;50264;52.088;5.296;2023-02-15T00:37:33;38.9;;;26.0;;
64022;SDS011;50264;52.088;5.296;2023-02-15T00:39:09;34.0;;;23.7;;
64022;SDS011;50264;52.088;5.296;2023-02-15T00:40:51;39.9;;;26.1;;
64022;SDS011;50264;52.088;5.296;2023-02-15T00:44:04;36.5;;;24.7;;
64022;SDS011;50264;52.088;5.296;2023-02-15T00:45:42;39.21;;;25.7;;
64022;SDS011;50264;52.088;5.296;2023-02-15T00:47:21;39.0;;;26.3;;
64022;SDS011;50264;52.088;5.296;2023-02-15T00:48:57;47.1;;;30.5;;
64022;SDS011;50264;52.088;5.296;2023-02-15T00:52:09;45.8;;;31.3;;
64022;SDS011;50264;52.088;5.296;2023-02-15T00:53:45;45.5;;;27.7;;
64022;SDS011;50264;52.088;5.296;2023-02-15T00:55:22;45.9;;;31.0;;
64022;SDS011;50264;52.088;5.296;2023-02-15T00:58:35;51.3;;;32.5;;
64022;SDS011;50264;52.088;5.296;2023-02-15T01:00:12;43.8;;;30.6;;
64022;SDS011;50264;52.088;5.296;2023-02-15T01:01:49;43.4;;;27.3;;
64022;SDS011;50264;52.088;5.296;2023-02-15T01:05:01;40.6;;;27.5;;
64022;SDS011;50264;52.088;5.296;2023-02-15T01:06:37;44.3;;;28.3;;
64022;SDS011;50264;52.088;5.296;2023-02-15T01:08:13;45.5;;;30.1;;
64022;SDS011;50264;52.088;5.296;2023-02-15T01:09:50;45.1;;;30.5;;
64022;SDS011;50264;52.088;5.296;2023-02-15T01:13:03;43.9;;;30.8;;
64022;SDS011;50264;52.088;5.296;2023-02-15T01:14:40;44.4;;;29.0;;
64022;SDS011;50264;52.088;5.296;2023-02-15T01:16:16;43.2;;;27.3;;
64022;SDS011;50264;52.088;5.296;2023-02-15T01:19:29;41.9;;;28.1;;
64022;SDS011;50264;52.088;5.296;2023-02-15T01:21:09;42.8;;;29.2;;
64022;SDS011;50264;52.088;5.296;2023-02-15T01:22:49;41.9;;;27.7;;
64022;SDS011;50264;52.088;5.296;2023-02-15T01:26:02;41.1;;;27.8;;
64022;SDS011;50264;52.088;5.296;2023-02-15T01:27:39;41.6;;;27.1;;
64022;SDS011;50264;52.088;5.296;2023-02-15T01:29:15;43.1;;;27.6;;
64022;SDS011;50264;52.088;5.296;2023-02-15T01:30:51;40.6;;;27.5;;
64022;SDS011;50264;52.088;5.296;2023-02-15T01:34:04;39.9;;;27.6;;
64022;SDS011;50264;52.088;5.296;2023-02-15T01:35:40;42.4;;;28.5;;
64022;SDS011;50264;52.088;5.296;2023-02-15T01:37:16;44.5;;;28.5;;
64022;SDS011;50264;52.088;5.296;2023-02-15T01:40:28;37.71;;;27.6;;
64022;SDS011;50264;52.088;5.296;2023-02-15T01:42:07;45.2;;;30.3;;
64022;SDS011;50264;52.088;5.296;2023-02-15T01:43:47;46.7;;;29.9;;
64022;SDS011;50264;52.088;5.296;2023-02-15T01:45:26;46.7;;;30.6;;
64022;SDS011;50264;52.088;5.296;2023-02-15T01:48:40;41.9;;;29.0;;
64022;SDS011;50264;52.088;5.296;2023-02-15T01:50:23;36.6;;;26.7;;
64022;SDS011;50264;52.088;5.296;2023-02-15T01:52:05;40.21;;;27.1;;
64022;SDS011;50264;52.088;5.296;2023-02-15T01:55:27;44.1;;;28.9;;
64022;SDS011;50264;52.088;5.296;2023-02-15T01:57:09;47.8;;;29.6;;
64022;SDS011;50264;52.088;5.296;2023-02-15T01:58:52;47.3;;;28.3;;
64022;SDS011;50264;52.088;5.296;2023-02-15T02:00:31;46.1;;;27.5;;
64022;SDS011;50264;52.088;5.296;2023-02-15T02:02:09;38.9;;;27.8;;
64022;SDS011;50264;52.088;5.296;2023-02-15T02:05:34;38.5;;;27.9;;
64022;SDS011;50264;52.088;5.296;2023-02-15T02:07:11;42.7;;;27.4;;
64022;SDS011;50264;52.088;5.296;2023-02-15T02:08:51;43.5;;;28.8;;
64022;SDS011;50264;52.088;5.296;2023-02-15T02:12:04;46.9;;;29.1;;
64022;SDS011;50264;52.088;5.296;2023-02-15T02:13:41;42.7;;;29.6;;
64022;SDS011;50264;52.088;5.296;2023-02-15T02:15:20;42.7;;;29.6;;
64022;SDS011;50264;52.088;5.296;2023-02-15T02:17:06;48.1;;;30.6;;
64022;SDS011;50264;52.088;5.296;2023-02-15T02:18:55;42.4;;;29.1;;
64022;SDS011;50264;52.088;5.296;2023-02-15T02:23:20;46.4;;;29.9;;
64022;SDS011;50264;52.088;5.296;2023-02-15T02:32:52;47.2;;;27.8;;
64022;SDS011;50264;52.088;5.296;2023-02-15T02:35:42;42.7;;;28.9;;
64022;SDS011;50264;52.088;5.296;2023-02-15T02:39:13;44.0;;;29.3;;
64022;SDS011;50264;52.088;5.296;2023-02-15T02:41:08;43.5;;;29.1;;
64022;SDS011;50264;52.088;5.296;2023-02-15T02:42:54;43.5;;;29.1;;
64022;SDS011;50264;52.088;5.296;2023-02-15T02:44:39;44.6;;;28.4;;
64022;SDS011;50264;52.088;5.296;2023-02-15T02:46:20;47.6;;;29.0;;
64022;SDS011;50264;52.088;5.296;2023-02-15T02:49:43;47.4;;;29.2;;
64022;SDS011;50264;52.088;5.296;2023-02-15T02:51:21;43.7;;;29.3;;
64022;SDS011;50264;52.088;5.296;2023-02-15T02:52:58;45.1;;;30.0;;
64022;SDS011;50264;52.088;5.296;2023-02-15T02:54:35;44.5;;;30.4;;
64022;SDS011;50264;52.088;5.296;2023-02-15T02:57:57;44.7;;;30.6;;
64022;SDS011;50264;52.088;5.296;2023-02-15T02:59:41;52.4;;;31.4;;
64022;SDS011;50264;52.088;5.296;2023-02-15T03:01:24;45.6;;;28.1;;
64022;SDS011;50264;52.088;5.296;2023-02-15T03:03:08;49.4;;;30.8;;
64022;SDS011;50264;52.088;5.296;2023-02-15T03:04:59;42.3;;;27.4;;
64022;SDS011;50264;52.088;5.296;2023-02-15T03:08:29;45.8;;;28.5;;
64022;SDS011;50264;52.088;5.296;2023-02-15T03:10:12;38.1;;;28.4;;
64022;SDS011;50264;52.088;5.296;2023-02-15T03:11:49;43.6;;;27.8;;
64022;SDS011;50264;52.088;5.296;2023-02-15T03:13:26;41.1;;;28.4;;
64022;SDS011;50264;52.088;5.296;2023-02-15T03:16:46;41.9;;;27.3;;
64022;SDS011;50264;52.088;5.296;2023-02-15T03:18:27;46.5;;;29.0;;
64022;SDS011;50264;52.088;5.296;2023-02-15T03:20:14;41.2;;;28.2;;
64022;SDS011;50264;52.088;5.296;2023-02-15T03:22:04;41.1;;;27.9;;
64022;SDS011;50264;52.088;5.296;2023-02-15T03:23:45;46.5;;;27.8;;
64022;SDS011;50264;52.088;5.296;2023-02-15T03:27:04;47.1;;;29.7;;
64022;SDS011;50264;52.088;5.296;2023-02-15T03:28:46;51.4;;;30.9;;
64022;SDS011;50264;52.088;5.296;2023-02-15T03:30:25;44.7;;;30.1;;
64022;SDS011;50264;52.088;5.296;2023-02-15T03:32:05;49.8;;;31.2;;
64022;SDS011;50264;52.088;5.296;2023-02-15T03:35:31;45.5;;;30.4;;
64022;SDS011;50264;52.088;5.296;2023-02-15T03:37:22;49.0;;;30.8;;
64022;SDS011;50264;52.088;5.296;2023-02-15T03:39:07;46.8;;;29.4;;
64022;SDS011;50264;52.088;5.296;2023-02-15T03:41:21;46.0;;;29.3;;
64022;SDS011;50264;52.088;5.296;2023-02-15T03:43:03;45.9;;;30.9;;
64022;SDS011;50264;52.088;5.296;2023-02-15T03:44:49;44.3;;;29.7;;
64022;SDS011;50264;52.088;5.296;2023-02-15T03:48:18;41.6;;;28.6;;
64022;SDS011;50264;52.088;5.296;2023-02-15T03:49:59;40.71;;;26.9;;
64022;SDS011;50264;52.088;5.296;2023-02-15T03:51:41;42.8;;;29.2;;
64022;SDS011;50264;52.088;5.296;2023-02-15T03:53:22;42.0;;;29.7;;
64022;SDS011;50264;52.088;5.296;2023-02-15T03:56:38;53.3;;;31.2;;
64022;SDS011;50264;52.088;5.296;2023-02-15T04:02:27;46.3;;;29.2;;
64022;SDS011;50264;52.088;5.296;2023-02-15T04:04:13;41.7;;;29.4;;
64022;SDS011;50264;52.088;5.296;2023-02-15T04:05:55;48.4;;;31.0;;
64022;SDS011;50264;52.088;5.296;2023-02-15T04:10:56;50.9;;;31.4;;
64022;SDS011;50264;52.088;5.296;2023-02-15T04:12:42;44.2;;;29.7;;
64022;SDS011;50264;52.088;5.296;2023-02-15T04:16:06;44.7;;;28.6;;
64022;SDS011;50264;52.088;5.296;2023-02-15T04:17:43;42.1;;;28.9;;
64022;SDS011;50264;52.088;5.296;2023-02-15T04:25:18;49.2;;;31.0;;
64022;SDS011;50264;52.088;5.296;2023-02-15T04:26:56;46.9;;;31.1;;
64022;SDS011;50264;52.088;5.296;2023-02-15T04:30:09;47.0;;;30.9;;
64022;SDS011;50264;52.088;5.296;2023-02-15T04:31:48;50.8;;;32.4;;
64022;SDS011;50264;52.088;5.296;2023-02-15T04:33:25;41.7;;;28.9;;
64022;SDS011;50264;52.088;5.296;2023-02-15T04:35:02;48.2;;;32.6;;
64022;SDS011;50264;52.088;5.296;2023-02-15T04:38:16;47.3;;;31.6;;
64022;SDS011;50264;52.088;5.296;2023-02-15T04:39:52;49.6;;;31.7;;
64022;SDS011;50264;52.088;5.296;2023-02-15T04:41:29;49.4;;;32.3;;
64022;SDS011;50264;52.088;5.296;2023-02-15T04:44:41;50.7;;;30.1;;
64022;SDS011;50264;52.088;5.296;2023-02-15T04:46:18;46.1;;;29.8;;
64022;SDS011;50264;52.088;5.296;2023-02-15T04:47:55;56.6;;;31.5;;
64022;SDS011;50264;52.088;5.296;2023-02-15T04:49:31;47.0;;;28.7;;
64022;SDS011;50264;52.088;5.296;2023-02-15T04:52:43;52.4;;;31.2;;
64022;SDS011;50264;52.088;5.296;2023-02-15T04:54:20;43.8;;;30.9;;
64022;SDS011;50264;52.088;5.296;2023-02-15T04:55:56;50.9;;;29.6;;
64022;SDS011;50264;52.088;5.296;2023-02-15T04:59:09;47.0;;;29.8;;
64022;SDS011;50264;52.088;5.296;2023-02-15T05:00:45;43.5;;;30.5;;
64022;SDS011;50264;52.088;5.296;2023-02-15T05:02:22;48.4;;;30.5;;
64022;SDS011;50264;52.088;5.296;2023-02-15T05:05:34;52.7;;;30.5;;
64022;SDS011;50264;52.088;5.296;2023-02-15T05:07:10;42.7;;;31.0;;
64022;SDS011;50264;52.088;5.296;2023-02-15T05:08:46;46.0;;;31.1;;
64022;SDS011;50264;52.088;5.296;2023-02-15T05:11:59;50.6;;;31.1;;
64022;SDS011;50264;52.088;5.296;2023-02-15T05:13:35;47.6;;;30.9;;
64022;SDS011;50264;52.088;5.296;2023-02-15T05:15:11;48.7;;;30.1;;
64022;SDS011;50264;52.088;5.296;2023-02-15T05:16:47;45.8;;;29.1;;
64022;SDS011;50264;52.088;5.296;2023-02-15T05:19:59;51.0;;;30.2;;
64022;SDS011;50264;52.088;5.296;2023-02-15T05:21:35;47.6;;;29.6;;
64022;SDS011;50264;52.088;5.296;2023-02-15T05:23:12;50.7;;;31.0;;
64022;SDS011;50264;52.088;5.296;2023-02-15T05:28:58;43.9;;;29.2;;
64022;SDS011;50264;52.088;5.296;2023-02-15T05:30:34;44.8;;;29.6;;
64022;SDS011;50264;52.088;5.296;2023-02-15T05:32:12;52.8;;;30.9;;
64022;SDS011;50264;52.088;5.296;2023-02-15T05:33:49;41.0;;;29.0;;
64022;SDS011;50264;52.088;5.296;2023-02-15T05:37:02;44.2;;;29.2;;
64022;SDS011;50264;52.088;5.296;2023-02-15T05:38:38;44.2;;;29.0;;
64022;SDS011;50264;52.088;5.296;2023-02-15T05:40:15;44.6;;;30.4;;
64022;SDS011;50264;52.088;5.296;2023-02-15T05:41:51;46.1;;;29.4;;
64022;SDS011;50264;52.088;5.296;2023-02-15T05:45:06;48.7;;;29.7;;
64022;SDS011;50264;52.088;5.296;2023-02-15T05:46:42;45.3;;;30.2;;
64022;SDS011;50264;52.088;5.296;2023-02-15T05:48:19;45.5;;;29.3;;
64022;SDS011;50264;52.088;5.296;2023-02-15T05:51:34;46.1;;;29.7;;
64022;SDS011;50264;52.088;5.296;2023-02-15T05:53:10;47.7;;;29.5;;
64022;SDS011;50264;52.088;5.296;2023-02-15T05:54:46;41.9;;;28.3;;
64022;SDS011;50264;52.088;5.296;2023-02-15T05:57:59;51.9;;;29.7;;
64022;SDS011;50264;52.088;5.296;2023-02-15T05:59:35;47.7;;;28.1;;
64022;SDS011;50264;52.088;5.296;2023-02-15T06:01:12;40.5;;;28.8;;
64022;SDS011;50264;52.088;5.296;2023-02-15T06:02:50;46.2;;;28.3;;
64022;SDS011;50264;52.088;5.296;2023-02-15T06:06:04;47.6;;;29.0;;
64022;SDS011;50264;52.088;5.296;2023-02-15T06:07:42;46.9;;;29.4;;
64022;SDS011;50264;52.088;5.296;2023-02-15T06:09:19;40.9;;;28.7;;
64022;SDS011;50264;52.088;5.296;2023-02-15T06:12:32;45.4;;;28.6;;
64022;SDS011;50264;52.088;5.296;2023-02-15T06:14:08;50.9;;;29.7;;
64022;SDS011;50264;52.088;5.296;2023-02-15T06:15:44;44.2;;;29.0;;
64022;SDS011;50264;52.088;5.296;2023-02-15T06:17:21;42.4;;;29.0;;
64022;SDS011;50264;52.088;5.296;2023-02-15T06:20:35;44.8;;;30.5;;
64022;SDS011;50264;52.088;5.296;2023-02-15T06:22:13;40.81;;;28.5;;
64022;SDS011;50264;52.088;5.296;2023-02-15T06:23:50;48.3;;;31.0;;
64022;SDS011;50264;52.088;5.296;2023-02-15T06:27:02;41.9;;;28.2;;
64022;SDS011;50264;52.088;5.296;2023-02-15T06:28:38;43.1;;;29.2;;
64022;SDS011;50264;52.088;5.296;2023-02-15T06:30:14;44.2;;;28.1;;
64022;SDS011;50264;52.088;5.296;2023-02-15T06:33:27;42.2;;;28.8;;
64022;SDS011;50264;52.088;5.296;2023-02-15T06:35:03;45.1;;;29.2;;
64022;SDS011;50264;52.088;5.296;2023-02-15T06:36:40;46.9;;;29.2;;
64022;SDS011;50264;52.088;5.296;2023-02-15T06:38:17;46.9;;;29.2;;
64022;SDS011;50264;52.088;5.296;2023-02-15T06:41:29;41.8;;;31.2;;
64022;SDS011;50264;52.088;5.296;2023-02-15T06:43:05;48.1;;;28.3;;
64022;SDS011;50264;52.088;5.296;2023-02-15T06:44:41;44.7;;;29.0;;
64022;SDS011;50264;52.088;5.296;2023-02-15T06:47:54;49.2;;;30.9;;
64022;SDS011;50264;52.088;5.296;2023-02-15T06:49:30;40.9;;;27.4;;
64022;SDS011;50264;52.088;5.296;2023-02-15T06:51:06;41.8;;;27.6;;
64022;SDS011;50264;52.088;5.296;2023-02-15T06:54:18;41.4;;;26.7;;
64022;SDS011;50264;52.088;5.296;2023-02-15T06:55:59;39.31;;;27.7;;
64022;SDS011;50264;52.088;5.296;2023-02-15T06:57:37;39.9;;;28.1;;
64022;SDS011;50264;52.088;5.296;2023-02-15T06:59:13;50.5;;;29.0;;
64022;SDS011;50264;52.088;5.296;2023-02-15T07:02:27;38.31;;;26.2;;
64022;SDS011;50264;52.088;5.296;2023-02-15T07:04:03;44.6;;;28.0;;
64022;SDS011;50264;52.088;5.296;2023-02-15T07:05:39;40.21;;;26.7;;
64022;SDS011;50264;52.088;5.296;2023-02-15T07:08:52;40.4;;;27.5;;
64022;SDS011;50264;52.088;5.296;2023-02-15T07:10:28;38.31;;;25.4;;
64022;SDS011;50264;52.088;5.296;2023-02-15T07:13:09;40.71;;;26.4;;
64022;SDS011;50264;52.088;5.296;2023-02-15T07:14:45;46.5;;;28.4;;
64022;SDS011;50264;52.088;5.296;2023-02-15T07:16:21;41.9;;;28.0;;
64022;SDS011;50264;52.088;5.296;2023-02-15T07:19:33;37.31;;;26.5;;
64022;SDS011;50264;52.088;5.296;2023-02-15T07:21:10;37.31;;;26.4;;
64022;SDS011;50264;52.088;5.296;2023-02-15T07:22:46;42.6;;;28.3;;
64022;SDS011;50264;52.088;5.296;2023-02-15T07:24:23;39.9;;;27.6;;
64022;SDS011;50264;52.088;5.296;2023-02-15T07:27:36;39.1;;;26.0;;
64022;SDS011;50264;52.088;5.296;2023-02-15T07:29:13;40.0;;;28.1;;
64022;SDS011;50264;52.088;5.296;2023-02-15T07:30:49;41.4;;;27.2;;
64022;SDS011;50264;52.088;5.296;2023-02-15T07:34:05;40.9;;;27.3;;
64022;SDS011;50264;52.088;5.296;2023-02-15T07:35:46;43.3;;;27.9;;
64022;SDS011;50264;52.088;5.296;2023-02-15T07:37:23;41.8;;;26.7;;
64022;SDS011;50264;52.088;5.296;2023-02-15T07:39:00;42.0;;;26.8;;
64022;SDS011;50264;52.088;5.296;2023-02-15T07:42:13;42.7;;;28.1;;
64022;SDS011;50264;52.088;5.296;2023-02-15T07:43:49;39.1;;;26.2;;
64022;SDS011;50264;52.088;5.296;2023-02-15T07:45:25;44.2;;;28.6;;
64022;SDS011;50264;52.088;5.296;2023-02-15T07:48:38;45.4;;;29.7;;
64022;SDS011;50264;52.088;5.296;2023-02-15T07:50:15;41.6;;;27.7;;
64022;SDS011;50264;52.088;5.296;2023-02-15T07:51:52;39.6;;;26.3;;
64022;SDS011;50264;52.088;5.296;2023-02-15T07:55:06;39.71;;;27.2;;
64022;SDS011;50264;52.088;5.296;2023-02-15T07:56:43;38.4;;;27.7;;
64022;SDS011;50264;52.088;5.296;2023-02-15T07:58:19;41.2;;;28.4;;
64022;SDS011;50264;52.088;5.296;2023-02-15T07:59:56;45.3;;;29.1;;
64022;SDS011;50264;52.088;5.296;2023-02-15T08:03:14;39.71;;;27.8;;
64022;SDS011;50264;52.088;5.296;2023-02-15T08:04:50;42.4;;;28.3;;
64022;SDS011;50264;52.088;5.296;2023-02-15T08:06:28;48.7;;;28.5;;
64022;SDS011;50264;52.088;5.296;2023-02-15T08:09:43;36.5;;;27.2;;
64022;SDS011;50264;52.088;5.296;2023-02-15T08:11:29;38.31;;;27.3;;
64022;SDS011;50264;52.088;5.296;2023-02-15T08:13:07;40.81;;;27.9;;
64022;SDS011;50264;52.088;5.296;2023-02-15T08:14:43;44.2;;;29.3;;
64022;SDS011;50264;52.088;5.296;2023-02-15T08:18:00;47.8;;;27.8;;
64022;SDS011;50264;52.088;5.296;2023-02-15T08:19:36;45.6;;;29.5;;
64022;SDS011;50264;52.088;5.296;2023-02-15T08:21:13;40.9;;;27.2;;
64022;SDS011;50264;52.088;5.296;2023-02-15T08:24:26;37.4;;;26.3;;
64022;SDS011;50264;52.088;5.296;2023-02-15T08:26:04;44.8;;;28.5;;
64022;SDS011;50264;52.088;5.296;2023-02-15T08:27:40;39.81;;;28.2;;
64022;SDS011;50264;52.088;5.296;2023-02-15T08:29:17;44.0;;;29.5;;
64022;SDS011;50264;52.088;5.296;2023-02-15T08:32:40;49.3;;;30.7;;
64022;SDS011;50264;52.088;5.296;2023-02-15T08:34:17;38.0;;;26.0;;
64022;SDS011;50264;52.088;5.296;2023-02-15T08:35:55;43.0;;;29.2;;
64022;SDS011;50264;52.088;5.296;2023-02-15T08:37:31;48.8;;;30.3;;
64022;SDS011;50264;52.088;5.296;2023-02-15T08:40:44;50.2;;;32.6;;
64022;SDS011;50264;52.088;5.296;2023-02-15T08:42:20;41.3;;;29.2;;
64022;SDS011;50264;52.088;5.296;2023-02-15T08:43:57;47.8;;;32.4;;
64022;SDS011;50264;52.088;5.296;2023-02-15T08:47:12;46.2;;;33.3;;
64022;SDS011;50264;52.088;5.296;2023-02-15T08:48:48;42.7;;;30.8;;
64022;SDS011;50264;52.088;5.296;2023-02-15T08:50:25;43.5;;;29.6;;
64022;SDS011;50264;52.088;5.296;2023-02-15T08:53:38;49.2;;;32.5;;
64022;SDS011;50264;52.088;5.296;2023-02-15T08:55:16;51.1;;;34.0;;
64022;SDS011;50264;52.088;5.296;2023-02-15T08:56:52;47.2;;;30.6;;
64022;SDS011;50264;52.088;5.296;2023-02-15T08:58:29;42.6;;;30.8;;
64022;SDS011;50264;52.088;5.296;2023-02-15T09:01:43;47.8;;;31.6;;
64022;SDS011;50264;52.088;5.296;2023-02-15T09:03:19;53.4;;;34.5;;
64022;SDS011;50264;52.088;5.296;2023-02-15T09:04:56;50.0;;;30.4;;
64022;SDS011;50264;52.088;5.296;2023-02-15T09:08:08;46.5;;;34.1;;
64022;SDS011;50264;52.088;5.296;2023-02-15T09:09:45;50.1;;;33.5;;
64022;SDS011;50264;52.088;5.296;2023-02-15T09:11:23;62.7;;;36.4;;
64022;SDS011;50264;52.088;5.296;2023-02-15T09:14:38;58.2;;;38.6;;
64022;SDS011;50264;52.088;5.296;2023-02-15T09:16:16;63.9;;;38.5;;
64022;SDS011;50264;52.088;5.296;2023-02-15T09:17:53;52.4;;;35.9;;
64022;SDS011;50264;52.088;5.296;2023-02-15T09:19:29;51.6;;;35.0;;
64022;SDS011;50264;52.088;5.296;2023-02-15T09:22:44;46.1;;;34.6;;
64022;SDS011;50264;52.088;5.296;2023-02-15T09:24:21;53.4;;;36.81;;
64022;SDS011;50264;52.088;5.296;2023-02-15T09:26:01;55.2;;;37.4;;
64022;SDS011;50264;52.088;5.296;2023-02-15T09:29:15;50.3;;;36.1;;
64022;SDS011;50264;52.088;5.296;2023-02-15T09:30:53;53.6;;;38.21;;
64022;SDS011;50264;52.088;5.296;2023-02-15T09:32:29;51.5;;;35.81;;
64022;SDS011;50264;52.088;5.296;2023-02-15T09:34:05;50.7;;;35.5;;
64022;SDS011;50264;52.088;5.296;2023-02-15T09:37:18;49.5;;;35.6;;
64022;SDS011;50264;52.088;5.296;2023-02-15T09:38:54;57.9;;;35.21;;
64022;SDS011;50264;52.088;5.296;2023-02-15T09:40:34;50.5;;;35.31;;
64022;SDS011;50264;52.088;5.296;2023-02-15T09:42:58;49.4;;;34.0;;
64022;SDS011;50264;52.088;5.296;2023-02-15T09:45:00;51.3;;;34.71;;
64022;SDS011;50264;52.088;5.296;2023-02-15T09:47:18;50.2;;;34.1;;
64022;SDS011;50264;52.088;5.296;2023-02-15T09:49:15;45.9;;;34.1;;
64022;SDS011;50264;52.088;5.296;2023-02-15T09:51:07;51.4;;;35.4;;
64022;SDS011;50264;52.088;5.296;2023-02-15T09:53:03;52.8;;;36.31;;
64022;SDS011;50264;52.088;5.296;2023-02-15T09:54:59;46.9;;;35.21;;
64022;SDS011;50264;52.088;5.296;2023-02-15T09:58:35;46.0;;;33.5;;
64022;SDS011;50264;52.088;5.296;2023-02-15T10:00:24;48.9;;;34.4;;
64022;SDS011;50264;52.088;5.296;2023-02-15T10:02:18;50.8;;;35.81;;
64022;SDS011;50264;52.088;5.296;2023-02-15T10:04:11;50.9;;;36.4;;
64022;SDS011;50264;52.088;5.296;2023-02-15T10:06:09;49.0;;;35.5;;
64022;SDS011;50264;52.088;5.296;2023-02-15T10:08:05;50.0;;;35.9;;
64022;SDS011;50264;52.088;5.296;2023-02-15T10:10:28;48.7;;;34.0;;
64022;SDS011;50264;52.088;5.296;2023-02-15T10:12:23;46.7;;;35.81;;
64022;SDS011;50264;52.088;5.296;2023-02-15T10:14:16;52.2;;;37.21;;
64022;SDS011;50264;52.088;5.296;2023-02-15T10:16:12;52.9;;;37.81;;
64022;SDS011;50264;52.088;5.296;2023-02-15T10:18:12;47.5;;;34.81;;
64022;SDS011;50264;52.088;5.296;2023-02-15T10:20:53;47.7;;;35.5;;
64022;SDS011;50264;52.088;5.296;2023-02-15T10:22:37;48.3;;;35.21;;
64022;SDS011;50264;52.088;5.296;2023-02-15T10:24:32;44.8;;;34.31;;
64022;SDS011;50264;52.088;5.296;2023-02-15T10:26:37;46.1;;;34.71;;
64022;SDS011;50264;52.088;5.296;2023-02-15T10:30:07;52.4;;;36.4;;
64022;SDS011;50264;52.088;5.296;2023-02-15T10:31:48;50.8;;;35.0;;
64022;SDS011;50264;52.088;5.296;2023-02-15T10:33:31;54.9;;;36.0;;
64022;SDS011;50264;52.088;5.296;2023-02-15T10:35:15;49.7;;;35.4;;
64022;SDS011;50264;52.088;5.296;2023-02-15T10:37:05;52.2;;;35.6;;
64022;SDS011;50264;52.088;5.296;2023-02-15T10:39:56;53.9;;;34.31;;
64022;SDS011;50264;52.088;5.296;2023-02-15T10:41:44;58.0;;;36.31;;
64022;SDS011;50264;52.088;5.296;2023-02-15T10:43:35;54.2;;;35.81;;
64022;SDS011;50264;52.088;5.296;2023-02-15T10:45:27;47.1;;;34.6;;
64022;SDS011;50264;52.088;5.296;2023-02-15T10:49:23;51.0;;;34.6;;
64022;SDS011;50264;52.088;5.296;2023-02-15T10:51:44;57.6;;;35.5;;
64022;SDS011;50264;52.088;5.296;2023-02-15T10:53:40;50.0;;;34.71;;
64022;SDS011;50264;52.088;5.296;2023-02-15T10:56:00;50.0;;;34.71;;
64022;SDS011;50264;52.088;5.296;2023-02-15T10:57:50;53.1;;;35.4;;
64022;SDS011;50264;52.088;5.296;2023-02-15T11:01:41;54.2;;;36.1;;
64022;SDS011;50264;52.088;5.296;2023-02-15T11:03:30;51.7;;;34.0;;
64022;SDS011;50264;52.088;5.296;2023-02-15T11:05:20;51.1;;;33.3;;
64022;SDS011;50264;52.088;5.296;2023-02-15T11:07:12;45.1;;;32.9;;
64022;SDS011;50264;52.088;5.296;2023-02-15T11:08:56;47.5;;;34.31;;
64022;SDS011;50264;52.088;5.296;2023-02-15T11:10:37;52.4;;;34.81;;
64022;SDS011;50264;52.088;5.296;2023-02-15T11:14:02;48.2;;;35.21;;
64022;SDS011;50264;52.088;5.296;2023-02-15T11:15:51;58.9;;;35.81;;
64022;SDS011;50264;52.088;5.296;2023-02-15T11:17:33;54.6;;;34.81;;
64022;SDS011;50264;52.088;5.296;2023-02-15T11:19:15;50.6;;;35.0;;
64022;SDS011;50264;52.088;5.296;2023-02-15T11:20:59;57.2;;;35.9;;
64022;SDS011;50264;52.088;5.296;2023-02-15T11:24:18;52.1;;;35.4;;
64022;SDS011;50264;52.088;5.296;2023-02-15T11:25:58;50.6;;;34.4;;
64022;SDS011;50264;52.088;5.296;2023-02-15T11:27:37;51.7;;;34.4;;
64022;SDS011;50264;52.088;5.296;2023-02-15T11:29:17;53.0;;;35.81;;
64022;SDS011;50264;52.088;5.296;2023-02-15T11:32:50;59.7;;;36.31;;
64022;SDS011;50264;52.088;5.296;2023-02-15T11:34:30;52.2;;;36.0;;
64022;SDS011;50264;52.088;5.296;2023-02-15T11:36:12;54.8;;;35.31;;
64022;SDS011;50264;52.088;5.296;2023-02-15T11:37:53;52.5;;;34.5;;
64022;SDS011;50264;52.088;5.296;2023-02-15T11:39:35;60.8;;;37.5;;
64022;SDS011;50264;52.088;5.296;2023-02-15T11:42:55;59.3;;;37.31;;
64022;SDS011;50264;52.088;5.296;2023-02-15T11:44:36;58.2;;;37.1;;
64022;SDS011;50264;52.088;5.296;2023-02-15T11:46:19;52.9;;;36.5;;
64022;SDS011;50264;52.088;5.296;2023-02-15T11:47:56;55.9;;;35.6;;
64022;SDS011;50264;52.088;5.296;2023-02-15T11:51:13;56.1;;;35.9;;
64022;SDS011;50264;52.088;5.296;2023-02-15T11:52:56;53.1;;;33.9;;
64022;SDS011;50264;52.088;5.296;2023-02-15T11:54:36;51.8;;;34.9;;
64022;SDS011;50264;52.088;5.296;2023-02-15T11:56:18;59.2;;;36.0;;
64022;SDS011;50264;52.088;5.296;2023-02-15T11:59:40;56.1;;;35.1;;
64022;SDS011;50264;52.088;5.296;2023-02-15T12:01:24;52.6;;;35.1;;
64022;SDS011;50264;52.088;5.296;2023-02-15T12:03:09;62.1;;;37.21;;
64022;SDS011;50264;52.088;5.296;2023-02-15T12:04:52;60.7;;;36.9;;
64022;SDS011;50264;52.088;5.296;2023-02-15T12:08:15;54.8;;;34.71;;
64022;SDS011;50264;52.088;5.296;2023-02-15T12:09:59;59.0;;;36.4;;
64022;SDS011;50264;52.088;5.296;2023-02-15T12:11:39;54.0;;;35.9;;
64022;SDS011;50264;52.088;5.296;2023-02-15T12:13:17;51.1;;;34.1;;
64022;SDS011;50264;52.088;5.296;2023-02-15T12:16:39;57.9;;;35.31;;
64022;SDS011;50264;52.088;5.296;2023-02-15T12:18:20;51.8;;;35.1;;
64022;SDS011;50264;52.088;5.296;2023-02-15T12:22:03;51.7;;;35.31;;
64022;SDS011;50264;52.088;5.296;2023-02-15T12:23:42;53.5;;;35.5;;
64022;SDS011;50264;52.088;5.296;2023-02-15T12:27:13;51.9;;;35.5;;
64022;SDS011;50264;52.088;5.296;2023-02-15T12:28:54;63.1;;;37.21;;
64022;SDS011;50264;52.088;5.296;2023-02-15T12:30:34;57.3;;;34.9;;
64022;SDS011;50264;52.088;5.296;2023-02-15T12:32:16;53.4;;;34.81;;
64022;SDS011;50264;52.088;5.296;2023-02-15T12:35:34;56.0;;;35.71;;
64022;SDS011;50264;52.088;5.296;2023-02-15T12:37:14;58.0;;;36.0;;
64022;SDS011;50264;52.088;5.296;2023-02-15T12:39:26;57.4;;;35.21;;
64022;SDS011;50264;52.088;5.296;2023-02-15T12:41:03;50.9;;;33.6;;
64022;SDS011;50264;52.088;5.296;2023-02-15T12:42:57;55.2;;;34.81;;
64022;SDS011;50264;52.088;5.296;2023-02-15T12:44:35;51.8;;;34.9;;
64022;SDS011;50264;52.088;5.296;2023-02-15T12:48:14;56.6;;;35.1;;
64022;SDS011;50264;52.088;5.296;2023-02-15T12:50:11;52.1;;;33.9;;
64022;SDS011;50264;52.088;5.296;2023-02-15T12:51:51;57.6;;;35.31;;
64022;SDS011;50264;52.088;5.296;2023-02-15T12:53:30;52.0;;;35.0;;
64022;SDS011;50264;52.088;5.296;2023-02-15T12:55:10;60.0;;;35.81;;
64022;SDS011;50264;52.088;5.296;2023-02-15T12:58:31;54.9;;;36.0;;
64022;SDS011;50264;52.088;5.296;2023-02-15T13:00:24;55.0;;;36.0;;
64022;SDS011;50264;52.088;5.296;2023-02-15T13:02:05;47.3;;;33.8;;